<?xml version="1.0" encoding="UTF-8" standalone="no" ?>
<gpx xmlns="http://www.topografix.com/GPX/1/1" xmlns:xsi="http://www.w3.org/2001/XMLSchema-instance" xsi:schemaLocation="http://www.topografix.com/GPX/1/1 http://www.topografix.com/GPX/1/1/gpx.xsd" version="1.1" creator="VisuGPX - https://www.visugpx.com">
  <metadata>
    <name>Les Sauvages / Tarare Gr 1</name>
  </metadata>
  <trk>
    <name><![CDATA[Les Sauvages / Tarare Gr 1]]></name>
    <trkseg>
      <trkpt lat="45.89376" lon="4.40036">
        <ele>432</ele>
        <time>2021-04-14T11:32:52+02:00</time>
      </trkpt>
      <trkpt lat="45.89421" lon="4.3994">
        <ele>444</ele>
        <time>2021-04-14T11:32:57+02:00</time>
      </trkpt>
      <trkpt lat="45.89446" lon="4.39832">
        <ele>454</ele>
        <time>2021-04-14T11:33:02+02:00</time>
      </trkpt>
      <trkpt lat="45.89454" lon="4.39723">
        <ele>459</ele>
        <time>2021-04-14T11:33:07+02:00</time>
      </trkpt>
      <trkpt lat="45.89467" lon="4.39716">
        <ele>463</ele>
        <time>2021-04-14T11:33:12+02:00</time>
      </trkpt>
      <trkpt lat="45.89498" lon="4.39873">
        <ele>471</ele>
        <time>2021-04-14T11:33:17+02:00</time>
      </trkpt>
      <trkpt lat="45.89522" lon="4.3991">
        <ele>471</ele>
        <time>2021-04-14T11:33:22+02:00</time>
      </trkpt>
      <trkpt lat="45.89558" lon="4.39903">
        <ele>474</ele>
        <time>2021-04-14T11:33:27+02:00</time>
      </trkpt>
      <trkpt lat="45.89585" lon="4.39841">
        <ele>483</ele>
        <time>2021-04-14T11:33:32+02:00</time>
      </trkpt>
      <trkpt lat="45.89609" lon="4.3962">
        <ele>505</ele>
        <time>2021-04-14T11:33:37+02:00</time>
      </trkpt>
      <trkpt lat="45.89621" lon="4.39564">
        <ele>508</ele>
        <time>2021-04-14T11:33:42+02:00</time>
      </trkpt>
      <trkpt lat="45.89903" lon="4.3918">
        <ele>560</ele>
        <time>2021-04-14T11:33:47+02:00</time>
      </trkpt>
      <trkpt lat="45.89966" lon="4.38953">
        <ele>587</ele>
        <time>2021-04-14T11:33:52+02:00</time>
      </trkpt>
      <trkpt lat="45.89972" lon="4.38768">
        <ele>596</ele>
        <time>2021-04-14T11:33:57+02:00</time>
      </trkpt>
      <trkpt lat="45.90079" lon="4.38644">
        <ele>607</ele>
        <time>2021-04-14T11:34:02+02:00</time>
      </trkpt>
      <trkpt lat="45.9012" lon="4.38579">
        <ele>615</ele>
        <time>2021-04-14T11:34:07+02:00</time>
      </trkpt>
      <trkpt lat="45.90121" lon="4.38472">
        <ele>619</ele>
        <time>2021-04-14T11:34:12+02:00</time>
      </trkpt>
      <trkpt lat="45.90139" lon="4.38412">
        <ele>623</ele>
        <time>2021-04-14T11:34:17+02:00</time>
      </trkpt>
      <trkpt lat="45.90182" lon="4.38365">
        <ele>630</ele>
        <time>2021-04-14T11:34:22+02:00</time>
      </trkpt>
      <trkpt lat="45.90475" lon="4.38289">
        <ele>667</ele>
        <time>2021-04-14T11:34:27+02:00</time>
      </trkpt>
      <trkpt lat="45.90511" lon="4.38251">
        <ele>671</ele>
        <time>2021-04-14T11:34:32+02:00</time>
      </trkpt>
      <trkpt lat="45.90986" lon="4.37187">
        <ele>760</ele>
        <time>2021-04-14T11:34:37+02:00</time>
      </trkpt>
      <trkpt lat="45.91039" lon="4.37161">
        <ele>763</ele>
        <time>2021-04-14T11:34:42+02:00</time>
      </trkpt>
      <trkpt lat="45.91102" lon="4.37178">
        <ele>762</ele>
        <time>2021-04-14T11:34:47+02:00</time>
      </trkpt>
      <trkpt lat="45.9118" lon="4.37084">
        <ele>771</ele>
        <time>2021-04-14T11:34:52+02:00</time>
      </trkpt>
      <trkpt lat="45.91219" lon="4.37073">
        <ele>770</ele>
        <time>2021-04-14T11:34:57+02:00</time>
      </trkpt>
      <trkpt lat="45.91268" lon="4.37139">
        <ele>770</ele>
        <time>2021-04-14T11:35:02+02:00</time>
      </trkpt>
      <trkpt lat="45.9135" lon="4.37287">
        <ele>764</ele>
        <time>2021-04-14T11:35:07+02:00</time>
      </trkpt>
      <trkpt lat="45.91541" lon="4.37416">
        <ele>767</ele>
        <time>2021-04-14T11:35:12+02:00</time>
      </trkpt>
      <trkpt lat="45.9166" lon="4.37521">
        <ele>766</ele>
        <time>2021-04-14T11:35:17+02:00</time>
      </trkpt>
      <trkpt lat="45.91729" lon="4.37616">
        <ele>758</ele>
        <time>2021-04-14T11:35:22+02:00</time>
      </trkpt>
      <trkpt lat="45.9196" lon="4.37817">
        <ele>732</ele>
        <time>2021-04-14T11:35:27+02:00</time>
      </trkpt>
      <trkpt lat="45.9205" lon="4.3782">
        <ele>729</ele>
        <time>2021-04-14T11:35:32+02:00</time>
      </trkpt>
      <trkpt lat="45.92143" lon="4.37755">
        <ele>723</ele>
        <time>2021-04-14T11:35:37+02:00</time>
      </trkpt>
      <trkpt lat="45.92559" lon="4.37729">
        <ele>726</ele>
        <time>2021-04-14T11:35:42+02:00</time>
      </trkpt>
      <trkpt lat="45.92583" lon="4.37852">
        <ele>717</ele>
        <time>2021-04-14T11:35:47+02:00</time>
      </trkpt>
      <trkpt lat="45.92634" lon="4.37912">
        <ele>717</ele>
        <time>2021-04-14T11:35:52+02:00</time>
      </trkpt>
      <trkpt lat="45.92652" lon="4.3798">
        <ele>716</ele>
        <time>2021-04-14T11:35:57+02:00</time>
      </trkpt>
      <trkpt lat="45.92661" lon="4.38184">
        <ele>709</ele>
        <time>2021-04-14T11:36:02+02:00</time>
      </trkpt>
      <trkpt lat="45.92683" lon="4.38234">
        <ele>711</ele>
        <time>2021-04-14T11:36:07+02:00</time>
      </trkpt>
      <trkpt lat="45.92695" lon="4.38281">
        <ele>711</ele>
        <time>2021-04-14T11:36:12+02:00</time>
      </trkpt>
      <trkpt lat="45.92677" lon="4.38356">
        <ele>706</ele>
        <time>2021-04-14T11:36:17+02:00</time>
      </trkpt>
      <trkpt lat="45.92655" lon="4.38377">
        <ele>703</ele>
        <time>2021-04-14T11:36:22+02:00</time>
      </trkpt>
      <trkpt lat="45.92638" lon="4.38418">
        <ele>700</ele>
        <time>2021-04-14T11:36:27+02:00</time>
      </trkpt>
      <trkpt lat="45.92647" lon="4.38513">
        <ele>689</ele>
        <time>2021-04-14T11:36:32+02:00</time>
      </trkpt>
      <trkpt lat="45.92686" lon="4.38538">
        <ele>690</ele>
        <time>2021-04-14T11:36:37+02:00</time>
      </trkpt>
      <trkpt lat="45.92661" lon="4.38566">
        <ele>687</ele>
        <time>2021-04-14T11:36:42+02:00</time>
      </trkpt>
      <trkpt lat="45.92631" lon="4.38598">
        <ele>685</ele>
        <time>2021-04-14T11:36:47+02:00</time>
      </trkpt>
      <trkpt lat="45.92571" lon="4.38598">
        <ele>681</ele>
        <time>2021-04-14T11:36:52+02:00</time>
      </trkpt>
      <trkpt lat="45.92462" lon="4.38723">
        <ele>695</ele>
        <time>2021-04-14T11:36:57+02:00</time>
      </trkpt>
      <trkpt lat="45.9251" lon="4.38706">
        <ele>700</ele>
        <time>2021-04-14T11:37:02+02:00</time>
      </trkpt>
      <trkpt lat="45.92563" lon="4.38661">
        <ele>692</ele>
        <time>2021-04-14T11:37:07+02:00</time>
      </trkpt>
      <trkpt lat="45.92601" lon="4.38667">
        <ele>693</ele>
        <time>2021-04-14T11:37:12+02:00</time>
      </trkpt>
      <trkpt lat="45.92619" lon="4.38712">
        <ele>701</ele>
        <time>2021-04-14T11:37:17+02:00</time>
      </trkpt>
      <trkpt lat="45.92592" lon="4.38734">
        <ele>712</ele>
        <time>2021-04-14T11:37:22+02:00</time>
      </trkpt>
      <trkpt lat="45.92562" lon="4.388">
        <ele>727</ele>
        <time>2021-04-14T11:37:27+02:00</time>
      </trkpt>
      <trkpt lat="45.92546" lon="4.38822">
        <ele>732</ele>
        <time>2021-04-14T11:37:32+02:00</time>
      </trkpt>
      <trkpt lat="45.92541" lon="4.3889">
        <ele>744</ele>
        <time>2021-04-14T11:37:37+02:00</time>
      </trkpt>
      <trkpt lat="45.92544" lon="4.38931">
        <ele>749</ele>
        <time>2021-04-14T11:37:42+02:00</time>
      </trkpt>
      <trkpt lat="45.9249" lon="4.38987">
        <ele>759</ele>
        <time>2021-04-14T11:37:47+02:00</time>
      </trkpt>
      <trkpt lat="45.92383" lon="4.39105">
        <ele>747</ele>
        <time>2021-04-14T11:37:52+02:00</time>
      </trkpt>
      <trkpt lat="45.92371" lon="4.39154">
        <ele>741</ele>
        <time>2021-04-14T11:37:57+02:00</time>
      </trkpt>
      <trkpt lat="45.92428" lon="4.39131">
        <ele>748</ele>
        <time>2021-04-14T11:38:02+02:00</time>
      </trkpt>
      <trkpt lat="45.92358" lon="4.39199">
        <ele>736</ele>
        <time>2021-04-14T11:38:07+02:00</time>
      </trkpt>
      <trkpt lat="45.92298" lon="4.39206">
        <ele>732</ele>
        <time>2021-04-14T11:38:12+02:00</time>
      </trkpt>
      <trkpt lat="45.92278" lon="4.39229">
        <ele>730</ele>
        <time>2021-04-14T11:38:17+02:00</time>
      </trkpt>
      <trkpt lat="45.92198" lon="4.3924">
        <ele>728</ele>
        <time>2021-04-14T11:38:22+02:00</time>
      </trkpt>
      <trkpt lat="45.92063" lon="4.39435">
        <ele>731</ele>
        <time>2021-04-14T11:38:27+02:00</time>
      </trkpt>
      <trkpt lat="45.91798" lon="4.39624">
        <ele>684</ele>
        <time>2021-04-14T11:38:32+02:00</time>
      </trkpt>
      <trkpt lat="45.91769" lon="4.39631">
        <ele>680</ele>
        <time>2021-04-14T11:38:37+02:00</time>
      </trkpt>
      <trkpt lat="45.91753" lon="4.39646">
        <ele>678</ele>
        <time>2021-04-14T11:38:42+02:00</time>
      </trkpt>
      <trkpt lat="45.9172" lon="4.39628">
        <ele>675</ele>
        <time>2021-04-14T11:38:47+02:00</time>
      </trkpt>
      <trkpt lat="45.91693" lon="4.39665">
        <ele>674</ele>
        <time>2021-04-14T11:38:52+02:00</time>
      </trkpt>
      <trkpt lat="45.91644" lon="4.39714">
        <ele>675</ele>
        <time>2021-04-14T11:38:57+02:00</time>
      </trkpt>
      <trkpt lat="45.91474" lon="4.39779">
        <ele>691</ele>
        <time>2021-04-14T11:39:02+02:00</time>
      </trkpt>
      <trkpt lat="45.91411" lon="4.39871">
        <ele>688</ele>
        <time>2021-04-14T11:39:07+02:00</time>
      </trkpt>
      <trkpt lat="45.91404" lon="4.39935">
        <ele>687</ele>
        <time>2021-04-14T11:39:12+02:00</time>
      </trkpt>
      <trkpt lat="45.91219" lon="4.40364">
        <ele>724</ele>
        <time>2021-04-14T11:39:17+02:00</time>
      </trkpt>
      <trkpt lat="45.9121" lon="4.40425">
        <ele>725</ele>
        <time>2021-04-14T11:39:22+02:00</time>
      </trkpt>
      <trkpt lat="45.9119" lon="4.40553">
        <ele>722</ele>
        <time>2021-04-14T11:39:27+02:00</time>
      </trkpt>
      <trkpt lat="45.91113" lon="4.40665">
        <ele>713</ele>
        <time>2021-04-14T11:39:32+02:00</time>
      </trkpt>
      <trkpt lat="45.90956" lon="4.40789">
        <ele>696</ele>
        <time>2021-04-14T11:39:37+02:00</time>
      </trkpt>
      <trkpt lat="45.90905" lon="4.40877">
        <ele>687</ele>
        <time>2021-04-14T11:39:42+02:00</time>
      </trkpt>
      <trkpt lat="45.90836" lon="4.40961">
        <ele>682</ele>
        <time>2021-04-14T11:39:47+02:00</time>
      </trkpt>
      <trkpt lat="45.90821" lon="4.41023">
        <ele>683</ele>
        <time>2021-04-14T11:39:52+02:00</time>
      </trkpt>
      <trkpt lat="45.90581" lon="4.41315">
        <ele>661</ele>
        <time>2021-04-14T11:39:57+02:00</time>
      </trkpt>
      <trkpt lat="45.90541" lon="4.41442">
        <ele>647</ele>
        <time>2021-04-14T11:40:02+02:00</time>
      </trkpt>
      <trkpt lat="45.90324" lon="4.41826">
        <ele>603</ele>
        <time>2021-04-14T11:40:07+02:00</time>
      </trkpt>
      <trkpt lat="45.90321" lon="4.4192">
        <ele>597</ele>
        <time>2021-04-14T11:40:12+02:00</time>
      </trkpt>
      <trkpt lat="45.9029" lon="4.42017">
        <ele>598</ele>
        <time>2021-04-14T11:40:17+02:00</time>
      </trkpt>
      <trkpt lat="45.90273" lon="4.42038">
        <ele>599</ele>
        <time>2021-04-14T11:40:22+02:00</time>
      </trkpt>
      <trkpt lat="45.9025" lon="4.42124">
        <ele>594</ele>
        <time>2021-04-14T11:40:27+02:00</time>
      </trkpt>
      <trkpt lat="45.90117" lon="4.42341">
        <ele>567</ele>
        <time>2021-04-14T11:40:32+02:00</time>
      </trkpt>
      <trkpt lat="45.90126" lon="4.42648">
        <ele>507</ele>
        <time>2021-04-14T11:40:37+02:00</time>
      </trkpt>
      <trkpt lat="45.90118" lon="4.42716">
        <ele>493</ele>
        <time>2021-04-14T11:40:42+02:00</time>
      </trkpt>
      <trkpt lat="45.90015" lon="4.42918">
        <ele>447</ele>
        <time>2021-04-14T11:40:47+02:00</time>
      </trkpt>
      <trkpt lat="45.89896" lon="4.42999">
        <ele>413</ele>
        <time>2021-04-14T11:40:52+02:00</time>
      </trkpt>
      <trkpt lat="45.89885" lon="4.43062">
        <ele>405</ele>
        <time>2021-04-14T11:40:57+02:00</time>
      </trkpt>
      <trkpt lat="45.89782" lon="4.43094">
        <ele>402</ele>
        <time>2021-04-14T11:41:02+02:00</time>
      </trkpt>
      <trkpt lat="45.89793" lon="4.43156">
        <ele>397</ele>
        <time>2021-04-14T11:41:07+02:00</time>
      </trkpt>
      <trkpt lat="45.89851" lon="4.43186">
        <ele>393</ele>
        <time>2021-04-14T11:41:12+02:00</time>
      </trkpt>
      <trkpt lat="45.89866" lon="4.43223">
        <ele>393</ele>
        <time>2021-04-14T11:41:17+02:00</time>
      </trkpt>
    </trkseg>
  </trk>
</gpx>